createdAt,value
2022-09-30T00:00:03.894Z, 22.51
2022-09-30T00:01:03.881Z, 22.51
2022-09-30T00:02:04.054Z, 22.51
2022-09-30T00:03:05.033Z, 22.53
2022-09-30T00:04:03.953Z, 22.51
2022-09-30T00:05:03.983Z, 22.51
2022-09-30T00:06:08.171Z, 22.53
2022-09-30T00:07:04.102Z, 22.51
2022-09-30T00:08:04.083Z, 22.51
2022-09-30T00:09:04.213Z, 22.52
2022-09-30T00:10:04.170Z, 22.52
2022-09-30T00:11:04.271Z, 22.50
2022-09-30T00:12:04.245Z, 22.53
2022-09-30T00:13:04.300Z, 22.52
2022-09-30T00:14:04.329Z, 22.52
2022-09-30T00:15:04.387Z, 22.51
2022-09-30T00:16:04.433Z, 22.51
2022-09-30T00:17:04.438Z, 22.50
2022-09-30T00:18:04.478Z, 22.51
2022-09-30T00:19:04.483Z, 22.51
2022-09-30T00:20:04.499Z, 22.51
2022-09-30T00:21:04.541Z, 22.50
2022-09-30T00:22:04.630Z, 22.51
2022-09-30T00:23:04.608Z, 22.51
2022-09-30T00:24:04.700Z, 22.51
2022-09-30T00:25:04.701Z, 22.51
2022-09-30T00:26:04.703Z, 22.51
2022-09-30T00:27:04.733Z, 22.51
2022-09-30T00:28:04.828Z, 22.51
2022-09-30T00:29:04.798Z, 22.51
2022-09-30T00:30:04.906Z, 22.50
2022-09-30T00:31:04.932Z, 22.52
2022-09-30T00:32:04.901Z, 22.52
2022-09-30T00:33:04.919Z, 22.51
2022-09-30T00:34:04.938Z, 22.51
2022-09-30T00:35:04.992Z, 22.52
2022-09-30T00:36:05.041Z, 22.50
2022-09-30T00:37:05.088Z, 22.49
2022-09-30T00:38:05.099Z, 22.50
2022-09-30T00:39:05.199Z, 22.49
2022-09-30T00:40:05.254Z, 22.51
2022-09-30T00:41:05.275Z, 22.52
2022-09-30T00:42:05.300Z, 22.51
2022-09-30T00:43:05.286Z, 22.50
2022-09-30T00:44:05.329Z, 22.51
2022-09-30T00:45:05.376Z, 22.50
2022-09-30T00:46:05.418Z, 22.50
2022-09-30T00:47:05.500Z, 22.50
2022-09-30T00:48:05.476Z, 22.50
2022-09-30T00:49:05.518Z, 22.51
2022-09-30T00:50:05.530Z, 22.52
2022-09-30T00:51:05.564Z, 22.51
2022-09-30T00:52:05.612Z, 22.50
2022-09-30T00:53:05.671Z, 22.49
2022-09-30T00:54:05.728Z, 22.51
2022-09-30T00:55:05.722Z, 22.51
2022-09-30T00:56:05.749Z, 22.50
2022-09-30T00:57:05.778Z, 22.50
2022-09-30T00:58:05.799Z, 22.50
2022-09-30T00:59:05.865Z, 22.51
2022-09-30T01:00:05.908Z, 22.50
2022-09-30T01:01:06.074Z, 22.50
2022-09-30T01:02:06.241Z, 22.52
2022-09-30T01:03:06.001Z, 22.51
2022-09-30T01:04:06.119Z, 22.52
2022-09-30T01:05:06.135Z, 22.49
2022-09-30T01:06:06.125Z, 22.51
2022-09-30T01:07:06.162Z, 22.52
2022-09-30T01:08:06.161Z, 22.51
2022-09-30T01:09:06.316Z, 22.50
2022-09-30T01:10:06.314Z, 22.51
2022-09-30T01:11:08.387Z, 22.49
2022-09-30T01:12:07.325Z, 22.49
2022-09-30T01:13:06.332Z, 22.49
2022-09-30T01:14:09.379Z, 22.50
2022-09-30T01:15:06.440Z, 22.50
2022-09-30T01:16:06.472Z, 22.50
2022-09-30T01:17:06.520Z, 22.50
2022-09-30T01:18:06.570Z, 22.52
2022-09-30T01:19:06.547Z, 22.53
2022-09-30T01:20:06.550Z, 22.49
2022-09-30T01:21:06.571Z, 22.50
2022-09-30T01:22:06.655Z, 22.48
2022-09-30T01:23:06.654Z, 22.50
2022-09-30T01:24:06.683Z, 22.50
2022-09-30T01:25:06.802Z, 22.48
2022-09-30T01:26:06.836Z, 22.51
2022-09-30T01:27:06.883Z, 22.50
2022-09-30T01:28:06.854Z, 22.49
2022-09-30T01:29:06.910Z, 22.50
2022-09-30T01:30:06.931Z, 22.49
2022-09-30T01:31:07.018Z, 22.49
2022-09-30T01:32:07.072Z, 22.51
2022-09-30T01:33:07.112Z, 22.49
2022-09-30T01:34:07.073Z, 22.49
2022-09-30T01:35:07.170Z, 22.50
2022-09-30T01:36:07.230Z, 22.49
2022-09-30T01:37:07.206Z, 22.49
2022-09-30T01:38:08.243Z, 22.48
2022-09-30T01:39:07.259Z, 22.51
2022-09-30T01:40:07.334Z, 22.52
2022-09-30T01:41:07.328Z, 22.51
2022-09-30T01:42:07.385Z, 22.50
2022-09-30T01:43:07.474Z, 22.50
2022-09-30T01:44:07.453Z, 22.48
2022-09-30T01:45:07.525Z, 22.49
2022-09-30T01:46:07.520Z, 22.50
2022-09-30T01:47:07.537Z, 22.50
2022-09-30T01:48:07.638Z, 22.49
2022-09-30T01:49:07.600Z, 22.51
2022-09-30T01:50:07.629Z, 22.50
2022-09-30T01:51:07.687Z, 22.50
2022-09-30T01:52:07.695Z, 22.51
2022-09-30T01:53:07.722Z, 22.50
2022-09-30T01:54:07.757Z, 22.48
2022-09-30T01:55:07.787Z, 22.51
2022-09-30T01:56:07.877Z, 22.50
2022-09-30T01:57:07.878Z, 22.49
2022-09-30T01:58:07.910Z, 22.51
2022-09-30T01:59:07.958Z, 22.49
2022-09-30T02:00:08.063Z, 22.50
2022-09-30T02:01:08.122Z, 22.49
2022-09-30T02:02:08.205Z, 22.48
2022-09-30T02:03:08.117Z, 22.49
2022-09-30T02:04:08.136Z, 22.49
2022-09-30T02:05:08.145Z, 22.48
2022-09-30T02:06:08.197Z, 22.49
2022-09-30T02:07:08.295Z, 22.48
2022-09-30T02:08:08.281Z, 22.48
2022-09-30T02:09:08.350Z, 22.50
2022-09-30T02:10:08.348Z, 22.49
2022-09-30T02:11:08.334Z, 22.50
2022-09-30T02:12:08.367Z, 22.49
2022-09-30T02:13:08.399Z, 22.48
2022-09-30T02:14:08.512Z, 22.50
2022-09-30T02:15:08.516Z, 22.50
2022-09-30T02:16:08.552Z, 22.48
2022-09-30T02:17:08.566Z, 22.48
2022-09-30T02:18:08.652Z, 22.50
2022-09-30T02:19:08.650Z, 22.49
2022-09-30T02:20:08.743Z, 22.49
2022-09-30T02:21:08.699Z, 22.50
2022-09-30T02:22:08.722Z, 22.49
2022-09-30T02:23:08.837Z, 22.50
2022-09-30T02:24:08.873Z, 22.49
2022-09-30T02:25:08.852Z, 22.47
2022-09-30T02:26:08.878Z, 22.48
2022-09-30T02:27:08.958Z, 22.49
2022-09-30T02:28:08.952Z, 22.49
2022-09-30T02:29:08.956Z, 22.49
2022-09-30T02:30:09.053Z, 22.48
2022-09-30T02:31:09.125Z, 22.49
2022-09-30T02:32:09.072Z, 22.47
2022-09-30T02:33:09.139Z, 22.47
2022-09-30T02:34:09.136Z, 22.48
2022-09-30T02:35:09.231Z, 22.46
2022-09-30T02:36:09.265Z, 22.47
2022-09-30T02:37:09.238Z, 22.48
2022-09-30T02:38:09.297Z, 22.49
2022-09-30T02:39:09.318Z, 22.48
2022-09-30T02:40:09.325Z, 22.50
2022-09-30T02:41:09.343Z, 22.49
2022-09-30T02:42:09.432Z, 22.48
2022-09-30T02:43:09.403Z, 22.48
2022-09-30T02:44:09.479Z, 22.48
2022-09-30T02:45:09.469Z, 22.47
2022-09-30T02:46:09.644Z, 22.46
2022-09-30T02:47:09.594Z, 22.46
2022-09-30T02:48:09.578Z, 22.46
2022-09-30T02:49:09.592Z, 22.46
2022-09-30T02:50:09.613Z, 22.47
2022-09-30T02:51:09.688Z, 22.49
2022-09-30T02:52:09.701Z, 22.47
2022-09-30T02:53:09.784Z, 22.48
2022-09-30T02:54:09.763Z, 22.48
2022-09-30T02:55:09.825Z, 22.48
2022-09-30T02:56:09.839Z, 22.47
2022-09-30T02:57:09.869Z, 22.48
2022-09-30T02:58:09.954Z, 22.47
2022-09-30T02:59:09.990Z, 22.46
2022-09-30T03:00:12.987Z, 22.49
2022-09-30T03:01:10.073Z, 22.49
2022-09-30T03:02:10.156Z, 22.47
2022-09-30T03:03:10.084Z, 22.48
2022-09-30T03:04:10.145Z, 22.47
2022-09-30T03:05:10.156Z, 22.47
2022-09-30T03:06:10.191Z, 22.48
2022-09-30T03:07:10.207Z, 22.46
2022-09-30T03:08:10.238Z, 22.47
2022-09-30T03:09:10.324Z, 22.47
2022-09-30T03:10:10.306Z, 22.46
2022-09-30T03:11:10.342Z, 22.45
2022-09-30T03:12:10.387Z, 22.47
2022-09-30T03:13:10.414Z, 22.47
2022-09-30T03:14:10.424Z, 22.48
2022-09-30T03:15:10.454Z, 22.46
2022-09-30T03:16:13.791Z, 22.46
2022-09-30T03:17:10.513Z, 22.49
2022-09-30T03:18:10.558Z, 22.47
2022-09-30T03:19:10.601Z, 22.47
2022-09-30T03:20:10.640Z, 22.49
2022-09-30T03:21:10.664Z, 22.47
2022-09-30T03:22:10.693Z, 22.48
2022-09-30T03:23:10.770Z, 22.48
2022-09-30T03:24:10.763Z, 22.48
2022-09-30T03:25:10.871Z, 22.45
2022-09-30T03:26:10.858Z, 22.47
2022-09-30T03:27:10.890Z, 22.46
2022-09-30T03:28:10.995Z, 22.46
2022-09-30T03:29:11.032Z, 22.46
2022-09-30T03:30:11.065Z, 22.48
2022-09-30T03:31:11.090Z, 22.47
2022-09-30T03:32:11.049Z, 22.47
2022-09-30T03:33:11.082Z, 22.46
2022-09-30T03:34:11.125Z, 22.47
2022-09-30T03:35:11.158Z, 22.48
2022-09-30T03:36:11.265Z, 22.46
2022-09-30T03:37:11.238Z, 22.47
2022-09-30T03:38:11.287Z, 22.47
2022-09-30T03:39:11.309Z, 22.45
2022-09-30T03:40:11.327Z, 22.46
2022-09-30T03:41:11.341Z, 22.47
2022-09-30T03:42:11.377Z, 22.47
2022-09-30T03:43:11.424Z, 22.49
2022-09-30T03:44:11.514Z, 22.47
2022-09-30T03:45:11.545Z, 22.47
2022-09-30T03:46:11.581Z, 22.47
2022-09-30T03:47:11.611Z, 22.45
2022-09-30T03:48:11.593Z, 22.46
2022-09-30T03:49:11.605Z, 22.46
2022-09-30T03:50:11.630Z, 22.45
2022-09-30T03:51:11.666Z, 22.45
2022-09-30T03:52:11.718Z, 22.46
2022-09-30T03:53:11.752Z, 22.47
2022-09-30T03:54:11.788Z, 22.44
2022-09-30T03:55:11.830Z, 22.46
2022-09-30T03:56:11.841Z, 22.45
2022-09-30T03:57:11.870Z, 22.45
2022-09-30T03:58:11.984Z, 22.47
2022-09-30T03:59:11.959Z, 22.48
2022-09-30T04:00:11.997Z, 22.46
2022-09-30T04:01:12.174Z, 22.45
2022-09-30T04:02:12.118Z, 22.45
2022-09-30T04:03:12.088Z, 22.46
2022-09-30T04:04:12.114Z, 22.47
2022-09-30T04:05:12.204Z, 22.45
2022-09-30T04:06:12.240Z, 22.45
2022-09-30T04:07:12.279Z, 22.42
2022-09-30T04:08:12.275Z, 22.44
2022-09-30T04:09:12.387Z, 22.45
2022-09-30T04:10:12.353Z, 22.42
2022-09-30T04:11:12.412Z, 22.44
2022-09-30T04:12:12.376Z, 22.45
2022-09-30T04:13:12.412Z, 22.44
2022-09-30T04:14:12.507Z, 22.45
2022-09-30T04:15:12.545Z, 22.47
2022-09-30T04:16:12.577Z, 22.46
2022-09-30T04:17:12.613Z, 22.45
2022-09-30T04:18:12.583Z, 22.48
2022-09-30T04:19:12.614Z, 22.47
2022-09-30T04:20:12.668Z, 22.47
2022-09-30T04:21:12.676Z, 22.48
2022-09-30T04:22:12.785Z, 22.46
2022-09-30T04:23:12.765Z, 22.47
2022-09-30T04:24:12.790Z, 22.49
2022-09-30T04:25:12.820Z, 22.47
2022-09-30T04:26:12.916Z, 22.49
2022-09-30T04:27:12.896Z, 22.48
2022-09-30T04:28:12.975Z, 22.48
2022-09-30T04:29:12.973Z, 22.49
2022-09-30T04:30:12.973Z, 22.47
2022-09-30T04:31:13.126Z, 22.49
2022-09-30T04:32:13.029Z, 22.49
2022-09-30T04:33:13.105Z, 22.49
2022-09-30T04:34:13.108Z, 22.48
2022-09-30T04:35:13.162Z, 22.51
2022-09-30T04:36:13.230Z, 22.50
2022-09-30T04:37:13.223Z, 22.50
2022-09-30T04:38:13.222Z, 22.51
2022-09-30T04:39:13.245Z, 22.50
2022-09-30T04:40:13.263Z, 22.50
2022-09-30T04:41:13.362Z, 22.52
2022-09-30T04:42:13.393Z, 22.51
2022-09-30T04:43:13.429Z, 22.51
2022-09-30T04:44:13.422Z, 22.52
2022-09-30T04:45:13.427Z, 22.50
2022-09-30T04:46:13.518Z, 22.50
2022-09-30T04:47:13.551Z, 22.52
2022-09-30T04:48:13.526Z, 22.51
2022-09-30T04:49:13.589Z, 22.52
2022-09-30T04:50:13.659Z, 22.52
2022-09-30T04:51:13.649Z, 22.52
2022-09-30T04:52:13.675Z, 22.50
2022-09-30T04:53:13.711Z, 22.51
2022-09-30T04:54:13.725Z, 22.52
2022-09-30T04:55:13.749Z, 22.52
2022-09-30T04:56:13.806Z, 22.53
2022-09-30T04:57:13.831Z, 22.50
2022-09-30T04:58:13.868Z, 22.53
2022-09-30T04:59:13.970Z, 22.50
2022-09-30T05:00:13.936Z, 22.52
2022-09-30T05:01:14.092Z, 22.52
2022-09-30T05:02:14.124Z, 22.53
2022-09-30T05:03:14.091Z, 22.51
2022-09-30T05:04:14.092Z, 22.54
2022-09-30T05:05:14.124Z, 22.53
2022-09-30T05:06:14.146Z, 22.52
2022-09-30T05:07:14.246Z, 22.54
2022-09-30T05:08:14.282Z, 22.52
2022-09-30T05:09:14.421Z, 22.53
2022-09-30T05:10:14.347Z, 22.55
2022-09-30T05:11:14.335Z, 22.53
2022-09-30T05:12:14.323Z, 22.53
2022-09-30T05:13:14.449Z, 22.54
2022-09-30T05:14:14.486Z, 22.52
2022-09-30T05:15:14.464Z, 22.53
2022-09-30T05:16:14.638Z, 22.53
2022-09-30T05:17:14.578Z, 22.53
2022-09-30T05:18:14.571Z, 22.54
2022-09-30T05:19:14.581Z, 22.54
2022-09-30T05:20:18.859Z, 22.54
2022-09-30T05:21:14.654Z, 22.54
2022-09-30T05:22:14.767Z, 22.54
2022-09-30T05:23:14.758Z, 22.53
2022-09-30T05:24:14.826Z, 22.40
2022-09-30T05:25:14.834Z, 22.08
2022-09-30T05:26:14.826Z, 21.97
2022-09-30T05:27:14.848Z, 21.73
2022-09-30T05:28:14.860Z, 22.06
2022-09-30T05:29:14.890Z, 21.81
2022-09-30T05:30:14.952Z, 21.98
2022-09-30T05:31:15.117Z, 21.79
2022-09-30T05:32:15.068Z, 21.85
2022-09-30T05:33:15.042Z, 22.07
2022-09-30T05:34:15.148Z, 22.00
2022-09-30T05:35:15.135Z, 22.16
2022-09-30T05:36:15.137Z, 22.38
2022-09-30T05:37:15.180Z, 22.42
2022-09-30T05:38:15.275Z, 22.41
2022-09-30T05:39:15.334Z, 22.42
2022-09-30T05:40:15.315Z, 22.42
2022-09-30T05:41:15.339Z, 22.43
2022-09-30T05:42:15.436Z, 22.44
2022-09-30T05:43:15.438Z, 22.45
2022-09-30T05:44:15.467Z, 22.47
2022-09-30T05:45:15.527Z, 22.48
2022-09-30T05:46:15.612Z, 22.45
2022-09-30T05:47:15.541Z, 22.48
2022-09-30T05:48:15.557Z, 22.47
2022-09-30T05:49:15.599Z, 22.46
2022-09-30T05:50:15.612Z, 22.47
2022-09-30T05:51:15.634Z, 22.46
2022-09-30T05:52:15.714Z, 22.46
2022-09-30T05:53:15.714Z, 22.49
2022-09-30T05:54:15.751Z, 22.48
2022-09-30T05:55:15.839Z, 22.48
2022-09-30T05:56:15.881Z, 22.49
2022-09-30T05:57:15.862Z, 22.48
2022-09-30T05:58:15.961Z, 22.49
2022-09-30T05:59:15.949Z, 22.47
2022-09-30T06:00:16.006Z, 22.47
2022-09-30T06:01:16.060Z, 22.47
2022-09-30T06:02:16.222Z, 22.48
2022-09-30T06:03:16.148Z, 22.47
2022-09-30T06:04:16.121Z, 22.47
2022-09-30T06:05:16.134Z, 22.48
2022-09-30T06:06:16.172Z, 22.48
2022-09-30T06:07:16.192Z, 22.49
2022-09-30T06:08:16.244Z, 22.49
2022-09-30T06:09:16.353Z, 22.48
2022-09-30T06:10:16.316Z, 22.49
2022-09-30T06:11:16.346Z, 22.47
2022-09-30T06:12:16.384Z, 22.49
2022-09-30T06:13:16.417Z, 22.49
2022-09-30T06:14:16.448Z, 22.48
2022-09-30T06:15:16.477Z, 22.49
2022-09-30T06:16:16.555Z, 22.50
2022-09-30T06:17:16.552Z, 22.49
2022-09-30T06:18:17.854Z, 22.48
2022-09-30T06:19:16.681Z, 22.49
2022-09-30T06:20:16.745Z, 22.48
2022-09-30T06:21:16.717Z, 22.49
2022-09-30T06:22:16.760Z, 22.50
2022-09-30T06:23:16.756Z, 22.49
2022-09-30T06:24:16.849Z, 22.47
2022-09-30T06:25:16.851Z, 22.49
2022-09-30T06:26:16.875Z, 22.50
2022-09-30T06:27:16.908Z, 22.50
2022-09-30T06:28:16.938Z, 22.49
2022-09-30T06:29:17.005Z, 22.48
2022-09-30T06:30:17.068Z, 22.49
2022-09-30T06:31:17.126Z, 22.49
2022-09-30T06:32:17.075Z, 22.47
2022-09-30T06:33:17.126Z, 22.49
2022-09-30T06:34:17.132Z, 22.50
2022-09-30T06:35:17.186Z, 22.48
2022-09-30T06:36:17.228Z, 22.48
2022-09-30T06:37:17.310Z, 22.48
2022-09-30T06:38:17.312Z, 22.48
2022-09-30T06:39:17.330Z, 22.49
2022-09-30T06:40:17.576Z, 22.49
2022-09-30T06:41:17.572Z, 22.50
2022-09-30T06:42:17.578Z, 22.50
2022-09-30T06:43:17.575Z, 22.49
2022-09-30T06:44:17.609Z, 22.51
2022-09-30T06:45:30.171Z, 22.50
2022-09-30T06:46:23.781Z, 22.48
2022-09-30T06:47:23.940Z, 22.48
2022-09-30T06:48:25.067Z, 22.49
2022-09-30T06:49:17.853Z, 22.48
2022-09-30T06:50:25.036Z, 22.48
2022-09-30T06:51:17.856Z, 22.49
2022-09-30T06:52:17.997Z, 22.49
2022-09-30T06:53:17.884Z, 22.49
2022-09-30T06:54:17.998Z, 22.48
2022-09-30T06:55:17.997Z, 22.49
2022-09-30T06:56:18.025Z, 22.50
2022-09-30T06:57:18.022Z, 22.48
2022-09-30T06:58:18.138Z, 22.49
2022-09-30T06:59:18.233Z, 22.50
2022-09-30T07:00:18.139Z, 22.49
2022-09-30T07:01:18.343Z, 22.49
2022-09-30T07:02:18.369Z, 22.49
2022-09-30T07:03:18.282Z, 22.49
2022-09-30T07:04:18.282Z, 22.50
2022-09-30T07:05:18.295Z, 22.48
2022-09-30T07:06:18.327Z, 22.47
2022-09-30T07:07:18.421Z, 22.48
2022-09-30T07:08:18.425Z, 22.51
2022-09-30T07:09:18.685Z, 22.49
2022-09-30T07:10:18.503Z, 22.49
2022-09-30T07:11:18.508Z, 22.49
2022-09-30T07:12:18.507Z, 22.47
2022-09-30T07:13:19.708Z, 22.50
2022-09-30T07:14:18.681Z, 22.47
2022-09-30T07:15:18.675Z, 22.48
2022-09-30T07:16:18.735Z, 22.49
2022-09-30T07:17:18.844Z, 22.49
2022-09-30T07:18:18.844Z, 22.49
2022-09-30T07:19:18.921Z, 22.48
2022-09-30T07:20:18.858Z, 22.48
2022-09-30T07:21:19.022Z, 22.48
2022-09-30T07:22:19.016Z, 22.48
2022-09-30T07:23:22.125Z, 22.49
2022-09-30T07:24:19.025Z, 22.49
2022-09-30T07:25:19.025Z, 22.51
2022-09-30T07:26:19.022Z, 22.48
2022-09-30T07:27:19.042Z, 22.48
2022-09-30T07:28:19.197Z, 22.50
2022-09-30T07:29:19.191Z, 22.49
2022-09-30T07:30:26.733Z, 22.48
2022-09-30T07:31:33.123Z, 22.49
2022-09-30T07:32:19.416Z, 22.48
2022-09-30T07:33:19.364Z, 22.48
2022-09-30T07:34:19.366Z, 22.49
2022-09-30T07:35:19.365Z, 22.48
2022-09-30T07:36:19.532Z, 22.48
2022-09-30T07:37:19.533Z, 22.48
2022-09-30T07:38:19.399Z, 22.49
2022-09-30T07:39:19.538Z, 22.48
2022-09-30T07:40:19.553Z, 22.49
2022-09-30T07:41:19.568Z, 22.49
2022-09-30T07:42:22.498Z, 22.49
2022-09-30T07:43:19.565Z, 22.49
2022-09-30T07:44:19.713Z, 22.49
2022-09-30T07:45:19.717Z, 22.51
2022-09-30T07:46:19.716Z, 22.50
2022-09-30T07:47:19.716Z, 22.49
2022-09-30T07:48:19.740Z, 22.49
2022-09-30T07:49:19.879Z, 22.49
2022-09-30T07:50:19.881Z, 22.49
2022-09-30T07:51:19.886Z, 22.49
2022-09-30T07:52:20.928Z, 22.49
2022-09-30T07:53:19.887Z, 22.49
2022-09-30T07:54:19.908Z, 22.49
2022-09-30T07:55:20.051Z, 22.49
2022-09-30T07:56:20.051Z, 22.49
2022-09-30T07:57:20.060Z, 22.49
2022-09-30T07:58:20.061Z, 22.48
2022-09-30T07:59:20.193Z, 22.49
2022-09-30T08:00:41.227Z, 22.49
2022-09-30T08:01:20.316Z, 22.49
2022-09-30T08:02:20.252Z, 22.49
2022-09-30T08:03:20.236Z, 22.48
2022-09-30T08:04:20.259Z, 22.48
2022-09-30T08:05:20.400Z, 22.49
2022-09-30T08:06:20.440Z, 22.47
2022-09-30T08:07:20.404Z, 22.48
2022-09-30T08:08:20.418Z, 22.48
2022-09-30T08:09:20.721Z, 22.47
2022-09-30T08:11:20.607Z, 22.47
2022-09-30T08:12:20.579Z, 22.47
2022-09-30T08:13:20.578Z, 22.48
2022-09-30T08:14:21.028Z, 22.47
2022-09-30T08:15:20.755Z, 22.47
2022-09-30T08:16:20.805Z, 22.47
2022-09-30T08:17:20.918Z, 22.48
2022-09-30T08:18:20.920Z, 22.48
2022-09-30T08:19:20.931Z, 22.48
2022-09-30T08:20:22.572Z, 22.48
2022-09-30T08:21:20.953Z, 22.48
2022-09-30T08:22:21.037Z, 22.49
2022-09-30T08:23:20.931Z, 22.47
2022-09-30T08:24:21.018Z, 22.49
2022-09-30T08:25:21.092Z, 22.49
2022-09-30T08:26:21.121Z, 22.48
2022-09-30T08:27:21.134Z, 22.49
2022-09-30T08:28:21.095Z, 22.47
2022-09-30T08:29:42.735Z, 22.48
2022-09-30T08:30:21.194Z, 22.48
2022-09-30T08:31:21.226Z, 22.48
2022-09-30T08:32:21.150Z, 22.48
2022-09-30T08:33:21.158Z, 22.48
2022-09-30T08:34:21.262Z, 22.48
2022-09-30T08:35:21.207Z, 22.49
2022-09-30T08:36:21.243Z, 22.46
2022-09-30T08:37:21.311Z, 22.47
2022-09-30T08:38:21.353Z, 22.48
2022-09-30T08:39:21.394Z, 22.48
2022-09-30T08:40:21.458Z, 22.47
2022-09-30T08:41:21.506Z, 22.47
2022-09-30T08:42:37.395Z, 22.47
2022-09-30T08:43:21.461Z, 22.48
2022-09-30T08:44:21.604Z, 22.48
2022-09-30T08:45:21.508Z, 22.48
2022-09-30T08:46:21.617Z, 22.48
2022-09-30T08:47:21.658Z, 22.48
2022-09-30T08:48:21.611Z, 22.46
2022-09-30T08:49:21.654Z, 22.46
2022-09-30T08:50:21.750Z, 22.48
2022-09-30T08:51:21.721Z, 22.47
2022-09-30T08:52:30.710Z, 22.48
2022-09-30T08:53:21.815Z, 22.48
2022-09-30T08:54:21.814Z, 22.48
2022-09-30T08:55:21.853Z, 22.49
2022-09-30T08:56:21.987Z, 22.48
2022-09-30T08:57:22.020Z, 22.50
2022-09-30T08:58:22.134Z, 22.48
2022-09-30T08:59:21.989Z, 22.49
2022-09-30T09:00:22.006Z, 22.48
2022-09-30T09:01:22.118Z, 22.49
2022-09-30T09:02:22.210Z, 22.49
2022-09-30T09:03:22.064Z, 22.47
2022-09-30T09:04:22.281Z, 22.49
2022-09-30T09:05:22.225Z, 22.49
2022-09-30T09:06:22.170Z, 22.49
2022-09-30T09:07:22.221Z, 22.49
2022-09-30T09:08:22.247Z, 22.49
2022-09-30T09:09:22.347Z, 22.50
2022-09-30T09:10:22.368Z, 22.49
2022-09-30T09:11:22.323Z, 22.49
2022-09-30T09:12:22.373Z, 22.48
2022-09-30T09:13:22.417Z, 22.47
2022-09-30T09:14:22.507Z, 22.50
2022-09-30T09:15:22.492Z, 22.50
2022-09-30T09:16:22.683Z, 22.50
2022-09-30T09:17:22.616Z, 22.50
2022-09-30T09:18:24.405Z, 22.49
2022-09-30T09:19:22.692Z, 22.47
2022-09-30T09:20:22.667Z, 22.51
2022-09-30T09:21:22.662Z, 22.48
2022-09-30T09:22:24.957Z, 22.47
2022-09-30T09:23:22.787Z, 22.51
2022-09-30T09:24:22.756Z, 22.51
2022-09-30T09:25:22.921Z, 22.49
2022-09-30T09:26:22.900Z, 22.51
2022-09-30T09:27:22.903Z, 22.50
2022-09-30T09:28:22.921Z, 22.51
2022-09-30T09:29:23.005Z, 22.51
2022-09-30T09:30:22.923Z, 22.51
2022-09-30T09:31:23.033Z, 22.51
2022-09-30T09:32:22.986Z, 22.50
2022-09-30T09:33:23.020Z, 22.50
2022-09-30T09:34:23.060Z, 22.50
2022-09-30T09:35:23.082Z, 22.50
2022-09-30T09:36:23.123Z, 22.49
2022-09-30T09:37:23.161Z, 22.50
2022-09-30T09:38:23.192Z, 22.50
2022-09-30T09:39:23.403Z, 22.50
2022-09-30T09:40:23.279Z, 22.50
2022-09-30T09:41:23.390Z, 22.51
2022-09-30T09:42:24.383Z, 22.51
2022-09-30T09:43:26.168Z, 22.51
2022-09-30T09:44:23.519Z, 22.52
2022-09-30T09:45:23.453Z, 22.50
2022-09-30T09:46:23.550Z, 22.51
2022-09-30T09:47:23.527Z, 22.51
2022-09-30T09:48:23.630Z, 22.51
2022-09-30T09:49:23.670Z, 22.51
2022-09-30T09:50:23.707Z, 22.51
2022-09-30T09:51:23.698Z, 22.53
2022-09-30T09:52:23.708Z, 22.52
2022-09-30T09:53:23.778Z, 22.52
2022-09-30T09:54:23.857Z, 22.52
2022-09-30T09:55:23.800Z, 22.51
2022-09-30T09:56:27.304Z, 22.51
2022-09-30T09:57:23.977Z, 22.50
2022-09-30T09:58:23.942Z, 22.50
2022-09-30T09:59:24.389Z, 22.51
2022-09-30T10:00:24.003Z, 22.52
2022-09-30T10:01:24.085Z, 22.52
2022-09-30T10:02:24.156Z, 22.53
2022-09-30T10:03:24.114Z, 22.52
2022-09-30T10:04:24.523Z, 22.51
2022-09-30T10:05:24.175Z, 22.50
2022-09-30T10:06:24.274Z, 22.52
2022-09-30T10:07:24.317Z, 22.51
2022-09-30T10:08:24.561Z, 22.52
2022-09-30T10:09:24.493Z, 22.51
2022-09-30T10:10:24.540Z, 22.52
2022-09-30T10:11:24.363Z, 22.52
2022-09-30T10:12:24.387Z, 22.51
2022-09-30T10:13:24.437Z, 22.53
2022-09-30T10:14:24.626Z, 22.52
2022-09-30T10:15:24.521Z, 22.51
2022-09-30T10:16:24.536Z, 22.53
2022-09-30T10:17:24.641Z, 22.53
2022-09-30T10:18:24.802Z, 22.51
2022-09-30T10:19:24.616Z, 22.51
2022-09-30T10:20:24.708Z, 22.52
2022-09-30T10:21:24.753Z, 22.51
2022-09-30T10:22:24.740Z, 22.52
2022-09-30T10:23:24.834Z, 22.52
2022-09-30T10:24:24.854Z, 22.52
2022-09-30T10:25:24.935Z, 22.52
2022-09-30T10:26:24.922Z, 22.51
2022-09-30T10:27:24.949Z, 22.52
2022-09-30T10:28:25.139Z, 22.52
2022-09-30T10:29:25.006Z, 22.52
2022-09-30T10:30:25.036Z, 22.53
2022-09-30T10:31:25.222Z, 22.54
2022-09-30T10:32:25.109Z, 22.53
2022-09-30T10:33:25.194Z, 22.55
2022-09-30T10:34:25.235Z, 22.54
2022-09-30T10:35:25.199Z, 22.54
2022-09-30T10:36:25.238Z, 22.54
2022-09-30T10:37:25.247Z, 22.53
2022-09-30T10:38:25.425Z, 22.54
2022-09-30T10:39:25.329Z, 22.55
2022-09-30T10:40:25.411Z, 22.53
2022-09-30T10:41:26.129Z, 22.54
2022-09-30T10:42:26.812Z, 22.53
2022-09-30T10:43:25.556Z, 22.52
2022-09-30T10:44:25.553Z, 22.53
2022-09-30T10:45:25.552Z, 22.52
2022-09-30T10:46:27.135Z, 22.52
2022-09-30T10:47:25.604Z, 22.53
2022-09-30T10:48:25.710Z, 22.53
2022-09-30T10:49:25.682Z, 22.54
2022-09-30T10:50:25.701Z, 22.54
2022-09-30T10:51:26.090Z, 22.53
2022-09-30T10:52:25.817Z, 22.54
2022-09-30T10:53:25.779Z, 22.54
2022-09-30T10:54:25.847Z, 22.54
2022-09-30T10:55:25.846Z, 22.54
2022-09-30T10:56:25.891Z, 22.56
2022-09-30T10:57:25.932Z, 22.54
2022-09-30T10:58:25.967Z, 22.53
2022-09-30T10:59:26.067Z, 22.56
2022-09-30T11:00:27.104Z, 22.54
2022-09-30T11:01:26.359Z, 22.53
2022-09-30T11:02:26.143Z, 22.54
2022-09-30T11:03:26.160Z, 22.54
2022-09-30T11:04:26.235Z, 22.54
2022-09-30T11:05:26.279Z, 22.55
2022-09-30T11:06:26.571Z, 22.53
2022-09-30T11:07:26.294Z, 22.55
2022-09-30T11:08:26.324Z, 22.54
2022-09-30T11:09:26.429Z, 22.54
2022-09-30T11:10:26.421Z, 22.54
2022-09-30T11:11:26.412Z, 22.53
2022-09-30T11:12:26.485Z, 22.55
2022-09-30T11:13:26.495Z, 22.54
2022-09-30T11:14:26.607Z, 22.53
2022-09-30T11:15:26.572Z, 22.53
2022-09-30T11:16:27.129Z, 22.56
2022-09-30T11:17:26.652Z, 22.55
2022-09-30T11:18:26.760Z, 22.55
2022-09-30T11:19:26.713Z, 22.56
2022-09-30T11:20:26.743Z, 22.55
2022-09-30T11:21:26.833Z, 22.55
2022-09-30T11:22:26.824Z, 22.57
2022-09-30T11:23:26.862Z, 22.55
2022-09-30T11:24:26.936Z, 22.55
2022-09-30T11:25:26.914Z, 22.56
2022-09-30T11:26:27.172Z, 22.57
2022-09-30T11:27:26.956Z, 22.56
2022-09-30T11:28:27.018Z, 22.54
2022-09-30T11:29:27.077Z, 22.55
2022-09-30T11:30:27.075Z, 22.54
2022-09-30T11:31:27.134Z, 22.53
2022-09-30T11:32:27.192Z, 22.54
2022-09-30T11:33:27.216Z, 22.56
2022-09-30T11:34:27.214Z, 22.54
2022-09-30T11:35:27.259Z, 22.54
2022-09-30T11:36:27.514Z, 22.56
2022-09-30T11:37:27.387Z, 22.55
2022-09-30T11:38:27.360Z, 22.55
2022-09-30T11:39:27.376Z, 22.56
2022-09-30T11:40:27.424Z, 22.56
2022-09-30T11:41:27.448Z, 22.55
2022-09-30T11:42:27.469Z, 22.56
2022-09-30T11:43:27.492Z, 22.56
2022-09-30T11:44:27.527Z, 22.56
2022-09-30T11:45:27.671Z, 22.57
2022-09-30T11:46:27.809Z, 22.57
2022-09-30T11:47:27.644Z, 22.57
2022-09-30T11:48:32.536Z, 22.57
2022-09-30T11:49:27.737Z, 22.55
2022-09-30T11:50:27.746Z, 22.56
2022-09-30T11:51:27.809Z, 22.58
2022-09-30T11:52:27.856Z, 22.55
2022-09-30T11:53:27.850Z, 22.56
2022-09-30T11:54:27.935Z, 22.56
2022-09-30T11:55:27.915Z, 22.55
2022-09-30T11:56:28.291Z, 22.56
2022-09-30T11:57:27.986Z, 22.55
2022-09-30T11:58:41.032Z, 22.55
2022-09-30T11:59:28.051Z, 22.56
2022-09-30T12:00:28.084Z, 22.55
2022-09-30T12:01:28.096Z, 22.57
2022-09-30T12:02:28.174Z, 22.58
2022-09-30T12:03:28.236Z, 22.56
2022-09-30T12:04:28.245Z, 22.57
2022-09-30T12:05:28.208Z, 22.60
2022-09-30T12:06:28.431Z, 22.57
2022-09-30T12:07:28.284Z, 22.56
2022-09-30T12:08:28.344Z, 22.58
2022-09-30T12:09:28.391Z, 22.58
2022-09-30T12:10:28.404Z, 22.57
2022-09-30T12:11:28.432Z, 22.59
2022-09-30T12:12:28.531Z, 22.57
2022-09-30T12:13:28.572Z, 22.57
2022-09-30T12:14:28.613Z, 22.58
2022-09-30T12:15:28.583Z, 22.58
2022-09-30T12:16:28.945Z, 22.58
2022-09-30T12:17:28.700Z, 22.58
2022-09-30T12:18:28.699Z, 22.58
2022-09-30T12:19:28.749Z, 22.57
2022-09-30T12:20:28.825Z, 22.59
2022-09-30T12:21:28.868Z, 22.58
2022-09-30T12:22:28.895Z, 22.57
2022-09-30T12:23:28.877Z, 22.57
2022-09-30T12:24:28.976Z, 22.58
2022-09-30T12:25:28.990Z, 22.59
2022-09-30T12:26:29.260Z, 22.58
2022-09-30T12:27:29.051Z, 22.58
2022-09-30T12:28:29.081Z, 22.58
2022-09-30T12:29:29.133Z, 22.56